createdAt,value
2022-12-25T00:00:12.663Z,5.18
2022-12-25T00:03:04.400Z,5.16
2022-12-25T00:05:32.520Z,5.13
2022-12-25T00:08:00.424Z,5.11
2022-12-25T00:10:28.245Z,5.07
2022-12-25T00:12:56.087Z,5.00
2022-12-25T00:15:23.791Z,4.92
2022-12-25T00:17:51.712Z,4.81
2022-12-25T00:20:19.409Z,4.70
2022-12-25T00:22:47.123Z,4.58
2022-12-25T00:25:14.979Z,4.48
2022-12-25T00:27:42.667Z,4.40
2022-12-25T00:30:10.564Z,4.38
2022-12-25T00:32:38.440Z,4.38
2022-12-25T00:35:06.598Z,4.38
2022-12-25T00:37:34.452Z,4.36
2022-12-25T00:40:02.219Z,4.35
2022-12-25T00:42:30.215Z,4.32
2022-12-25T00:44:57.867Z,4.30
2022-12-25T00:47:25.823Z,4.25
2022-12-25T00:49:53.451Z,4.24
2022-12-25T00:52:21.597Z,4.24
2022-12-25T00:54:49.421Z,4.24
2022-12-25T00:57:17.068Z,4.25
2022-12-25T00:59:44.839Z,4.25
2022-12-25T01:02:12.530Z,4.27
2022-12-25T01:04:40.276Z,4.28
2022-12-25T01:07:07.979Z,4.30
2022-12-25T01:09:35.919Z,4.30
2022-12-25T01:12:03.596Z,4.30
2022-12-25T01:14:31.482Z,4.33
2022-12-25T01:16:59.438Z,4.36
2022-12-25T01:19:27.059Z,4.37
2022-12-25T01:21:54.868Z,4.38
2022-12-25T01:24:22.690Z,4.37
2022-12-25T01:26:50.549Z,4.37
2022-12-25T01:29:18.253Z,4.37
2022-12-25T01:31:46.352Z,4.38
2022-12-25T01:34:14.193Z,4.39
2022-12-25T01:36:43.120Z,4.41
2022-12-25T01:39:11.295Z,4.42
2022-12-25T01:41:39.037Z,4.45
2022-12-25T01:44:15.819Z,4.47
2022-12-25T01:46:44.229Z,4.50
2022-12-25T01:49:18.066Z,4.52
2022-12-25T01:51:50.817Z,4.53
2022-12-25T01:54:24.727Z,4.53
2022-12-25T01:56:56.070Z,4.52
2022-12-25T01:59:26.362Z,4.51
2022-12-25T02:01:54.182Z,4.52
2022-12-25T02:04:24.877Z,4.51
2022-12-25T02:06:52.569Z,4.52
2022-12-25T02:09:20.628Z,4.52
2022-12-25T02:11:48.279Z,4.52
2022-12-25T02:14:16.162Z,4.51
2022-12-25T02:16:58.033Z,4.51
2022-12-25T02:19:36.916Z,4.50
2022-12-25T02:22:35.475Z,4.47
2022-12-25T02:25:24.196Z,4.45
2022-12-25T02:28:01.239Z,4.44
2022-12-25T02:30:35.776Z,4.42
2022-12-25T02:33:16.414Z,4.41
2022-12-25T02:35:51.128Z,4.39
2022-12-25T02:38:25.377Z,4.37
2022-12-25T02:40:58.331Z,4.35
2022-12-25T02:43:41.796Z,4.33
2022-12-25T02:46:14.398Z,4.30
2022-12-25T02:48:51.057Z,4.28
2022-12-25T02:51:19.561Z,4.27
2022-12-25T02:53:48.985Z,4.24
2022-12-25T02:56:18.050Z,4.23
2022-12-25T02:58:47.919Z,4.21
2022-12-25T03:01:19.447Z,4.16
2022-12-25T03:03:51.434Z,4.10
2022-12-25T03:06:23.371Z,4.03
2022-12-25T03:08:56.107Z,3.95
2022-12-25T03:11:23.755Z,3.88
2022-12-25T03:14:04.861Z,3.81
2022-12-25T03:16:33.072Z,3.75
2022-12-25T03:19:00.977Z,3.70
2022-12-25T03:21:28.591Z,3.68
2022-12-25T03:24:01.160Z,3.67
2022-12-25T03:26:29.494Z,3.66
2022-12-25T03:28:57.404Z,3.64
2022-12-25T03:31:53.638Z,3.64
2022-12-25T03:34:39.856Z,3.64
2022-12-25T03:37:26.463Z,3.65
2022-12-25T03:40:20.534Z,3.66
2022-12-25T03:42:57.552Z,3.67
2022-12-25T03:45:35.481Z,3.68
2022-12-25T03:48:05.141Z,3.69
2022-12-25T03:50:48.500Z,3.71
2022-12-25T03:53:22.659Z,3.73
2022-12-25T03:55:52.490Z,3.74
2022-12-25T03:58:24.086Z,3.76
2022-12-25T04:00:51.680Z,3.78
2022-12-25T04:03:19.403Z,3.81
2022-12-25T04:05:47.508Z,3.84
2022-12-25T04:08:15.436Z,3.86
2022-12-25T04:10:43.139Z,3.88
2022-12-25T04:13:10.918Z,3.88
2022-12-25T04:15:38.537Z,3.88
2022-12-25T04:18:06.640Z,3.88
2022-12-25T04:20:34.228Z,3.88
2022-12-25T04:23:02.432Z,3.88
2022-12-25T04:25:30.132Z,3.89
2022-12-25T04:28:04.003Z,3.91
2022-12-25T04:30:31.670Z,3.94
2022-12-25T04:32:59.502Z,3.97
2022-12-25T04:35:27.423Z,3.99
2022-12-25T04:37:55.882Z,4.01
2022-12-25T04:40:24.163Z,4.04
2022-12-25T04:42:52.400Z,4.05
2022-12-25T04:45:20.397Z,4.06
2022-12-25T04:47:47.967Z,4.06
2022-12-25T04:50:15.703Z,4.06
2022-12-25T04:52:43.521Z,4.06
2022-12-25T04:55:11.816Z,4.06
2022-12-25T04:57:39.512Z,4.06
2022-12-25T05:00:08.082Z,4.05
2022-12-25T05:02:35.982Z,4.06
2022-12-25T05:05:04.119Z,4.04
2022-12-25T05:07:33.553Z,4.02
2022-12-25T05:10:01.157Z,4.02
2022-12-25T05:12:28.728Z,4.01
2022-12-25T05:14:56.497Z,4.02
2022-12-25T05:17:24.446Z,4.03
2022-12-25T05:19:52.110Z,4.05
2022-12-25T05:22:19.675Z,4.05
2022-12-25T05:24:47.389Z,4.07
2022-12-25T05:27:16.749Z,4.07
2022-12-25T05:29:44.536Z,4.06
2022-12-25T05:32:12.223Z,4.06
2022-12-25T05:34:39.846Z,4.06
2022-12-25T05:37:07.690Z,4.05
2022-12-25T05:39:35.479Z,4.03
2022-12-25T05:42:03.663Z,3.99
2022-12-25T05:44:31.337Z,3.94
2022-12-25T05:46:59.195Z,3.88
2022-12-25T05:49:26.804Z,3.80
2022-12-25T05:51:54.368Z,3.71
2022-12-25T05:54:22.047Z,3.62
2022-12-25T05:56:50.242Z,3.54
2022-12-25T05:59:18.180Z,3.47
2022-12-25T06:01:46.876Z,3.39
2022-12-25T06:04:14.642Z,3.30
2022-12-25T06:06:42.504Z,3.20
2022-12-25T06:09:12.488Z,3.09
2022-12-25T06:11:42.203Z,2.98
2022-12-25T06:14:13.166Z,2.87
2022-12-25T06:16:41.419Z,2.79
2022-12-25T06:19:09.178Z,2.73
2022-12-25T06:21:37.042Z,2.67
2022-12-25T06:24:05.136Z,2.62
2022-12-25T06:26:32.945Z,2.56
2022-12-25T06:29:00.782Z,2.52
2022-12-25T06:31:28.608Z,2.48
2022-12-25T06:33:56.377Z,2.44
2022-12-25T06:36:26.915Z,2.42
2022-12-25T06:38:54.566Z,2.42
2022-12-25T06:41:26.775Z,2.42
2022-12-25T06:43:57.203Z,2.42
2022-12-25T06:46:27.641Z,2.42
2022-12-25T06:48:56.759Z,2.41
2022-12-25T06:51:29.941Z,2.40
2022-12-25T06:53:58.518Z,2.40
2022-12-25T06:56:28.104Z,2.40
2022-12-25T06:58:58.855Z,2.39
2022-12-25T07:01:37.972Z,2.35
2022-12-25T07:04:17.560Z,2.33
2022-12-25T07:06:45.202Z,2.29
2022-12-25T07:09:13.051Z,2.23
2022-12-25T07:11:40.650Z,2.18
2022-12-25T07:14:21.831Z,2.13
2022-12-25T07:16:52.076Z,2.11
2022-12-25T07:19:19.845Z,2.09
2022-12-25T07:21:47.509Z,2.10
2022-12-25T07:24:23.099Z,2.13
2022-12-25T07:26:51.842Z,2.16
2022-12-25T07:29:19.932Z,2.19
2022-12-25T07:31:47.791Z,2.22
2022-12-25T07:34:18.841Z,2.26
2022-12-25T07:36:46.730Z,2.28
2022-12-25T07:39:14.342Z,2.31
2022-12-25T07:41:43.147Z,2.33
2022-12-25T07:44:10.788Z,2.36
2022-12-25T07:46:38.732Z,2.38
2022-12-25T07:49:06.560Z,2.42
2022-12-25T07:51:34.105Z,2.43
2022-12-25T07:54:01.693Z,2.46
2022-12-25T07:56:29.233Z,2.47
2022-12-25T07:58:56.897Z,2.49
2022-12-25T08:01:27.167Z,2.51
2022-12-25T08:03:56.383Z,2.51
2022-12-25T08:06:26.866Z,2.53
2022-12-25T08:08:54.640Z,2.57
2022-12-25T08:11:22.735Z,2.61
2022-12-25T08:13:51.091Z,2.65
2022-12-25T08:16:18.910Z,2.70
2022-12-25T08:18:46.631Z,2.74
2022-12-25T08:21:15.246Z,2.78
2022-12-25T08:23:45.669Z,2.82
2022-12-25T08:26:17.614Z,2.87
2022-12-25T08:28:45.452Z,2.92
2022-12-25T08:31:19.822Z,2.96
2022-12-25T08:33:50.153Z,3.03
2022-12-25T08:36:18.667Z,3.08
2022-12-25T08:38:46.839Z,3.14
2022-12-25T08:41:16.438Z,3.19
2022-12-25T08:43:45.501Z,3.24
2022-12-25T08:46:13.628Z,3.30
2022-12-25T08:48:49.076Z,3.35
2022-12-25T08:51:20.366Z,3.41
2022-12-25T08:53:50.931Z,3.46
2022-12-25T08:56:19.816Z,3.51
2022-12-25T08:58:47.379Z,3.56
2022-12-25T09:01:15.642Z,3.61
2022-12-25T09:03:43.619Z,3.66
2022-12-25T09:06:15.083Z,3.71
2022-12-25T09:08:48.794Z,3.76
2022-12-25T09:11:19.642Z,3.83
2022-12-25T09:13:48.915Z,3.91
2022-12-25T09:16:19.734Z,3.99
2022-12-25T09:18:47.584Z,4.07
2022-12-25T09:21:16.715Z,4.14
2022-12-25T09:23:45.023Z,4.21
2022-12-25T09:26:15.799Z,4.31
2022-12-25T09:28:50.801Z,4.41
2022-12-25T09:31:21.696Z,4.50
2022-12-25T09:33:50.874Z,4.59
2022-12-25T09:36:18.769Z,4.67
2022-12-25T09:38:46.446Z,4.75
2022-12-25T09:41:26.887Z,4.82
2022-12-25T09:44:06.790Z,4.89
2022-12-25T09:47:10.729Z,4.97
2022-12-25T09:50:10.511Z,5.06
2022-12-25T09:53:24.986Z,5.14
2022-12-25T09:56:04.612Z,5.22
2022-12-25T09:58:33.977Z,5.27
2022-12-25T10:01:28.938Z,5.32
2022-12-25T10:03:59.748Z,5.38
2022-12-25T10:06:51.622Z,5.44
2022-12-25T10:09:38.909Z,5.50
2022-12-25T10:12:22.352Z,5.57
2022-12-25T10:15:07.997Z,5.63
2022-12-25T10:17:51.570Z,5.69
2022-12-25T10:20:59.727Z,5.75
2022-12-25T10:23:30.774Z,5.83
2022-12-25T10:25:58.451Z,5.88
2022-12-25T10:28:55.822Z,5.95
2022-12-25T10:31:27.395Z,6.03
2022-12-25T10:33:55.686Z,6.10
2022-12-25T10:36:28.851Z,6.15
2022-12-25T10:38:56.591Z,6.23
2022-12-25T10:41:39.474Z,6.29
2022-12-25T10:44:33.907Z,6.38
2022-12-25T10:47:04.208Z,6.46
2022-12-25T10:49:33.403Z,6.52
2022-12-25T10:52:02.720Z,6.54
2022-12-25T10:54:35.852Z,6.59
2022-12-25T10:57:09.856Z,6.65
2022-12-25T10:59:55.710Z,6.72
2022-12-25T11:02:23.362Z,6.79
2022-12-25T11:04:58.446Z,6.87
2022-12-25T11:07:26.596Z,6.95
2022-12-25T11:10:02.678Z,7.03
2022-12-25T11:12:37.870Z,7.10
2022-12-25T11:15:27.984Z,7.19
2022-12-25T11:17:55.497Z,7.23
2022-12-25T11:20:24.477Z,7.29
2022-12-25T11:22:52.454Z,7.35
2022-12-25T11:25:26.375Z,7.39
2022-12-25T11:28:03.360Z,7.44
2022-12-25T11:30:33.560Z,7.49
2022-12-25T11:33:04.720Z,7.54
2022-12-25T11:35:43.074Z,7.59
2022-12-25T11:38:11.145Z,7.62
2022-12-25T11:40:51.925Z,7.66
2022-12-25T11:43:24.901Z,7.70
2022-12-25T11:45:59.191Z,7.71
2022-12-25T11:48:56.628Z,7.72
2022-12-25T11:51:29.149Z,7.72
2022-12-25T11:54:05.017Z,7.76
2022-12-25T11:56:32.714Z,7.77
2022-12-25T11:59:17.760Z,7.78
2022-12-25T12:01:55.084Z,7.81
2022-12-25T12:04:31.934Z,7.84
2022-12-25T12:07:17.067Z,7.87
2022-12-25T12:10:03.800Z,7.90
2022-12-25T12:12:49.078Z,7.92
2022-12-25T12:15:41.897Z,7.94
2022-12-25T12:18:18.685Z,7.97
2022-12-25T12:20:58.561Z,8.02
2022-12-25T12:23:28.699Z,8.05
2022-12-25T12:25:57.376Z,8.10
2022-12-25T12:28:29.922Z,8.11
2022-12-25T12:31:06.403Z,8.12
2022-12-25T12:33:42.662Z,8.13
2022-12-25T12:36:14.485Z,8.14
2022-12-25T12:38:44.376Z,8.15
2022-12-25T12:41:13.567Z,8.14
2022-12-25T12:44:03.244Z,8.14
2022-12-25T12:46:35.999Z,8.15
2022-12-25T12:49:16.714Z,8.18
2022-12-25T12:51:44.358Z,8.20
2022-12-25T12:54:26.533Z,8.20
2022-12-25T12:56:58.504Z,8.18
2022-12-25T12:59:32.755Z,8.15
2022-12-25T13:02:08.879Z,8.15
2022-12-25T13:04:39.595Z,8.12
2022-12-25T13:07:30.929Z,8.07
2022-12-25T13:10:25.821Z,8.05
2022-12-25T13:12:56.141Z,8.03
2022-12-25T13:15:28.657Z,8.00
2022-12-25T13:18:01.845Z,7.98
2022-12-25T13:20:59.351Z,7.98
2022-12-25T13:23:34.241Z,7.96
2022-12-25T13:26:12.021Z,7.93
2022-12-25T13:28:40.490Z,7.91
2022-12-25T13:31:18.035Z,7.88
2022-12-25T13:33:56.038Z,7.87
2022-12-25T13:36:24.789Z,7.85
2022-12-25T13:38:55.305Z,7.81
2022-12-25T13:41:26.542Z,7.77
2022-12-25T13:43:58.230Z,7.71
2022-12-25T13:46:27.661Z,7.67
2022-12-25T13:49:01.819Z,7.65
2022-12-25T13:51:29.817Z,7.64
2022-12-25T13:54:06.272Z,7.61
2022-12-25T13:56:35.199Z,7.59
2022-12-25T13:59:04.433Z,7.54
2022-12-25T14:01:32.194Z,7.46
2022-12-25T14:04:00.220Z,7.39
2022-12-25T14:06:30.111Z,7.32
2022-12-25T14:08:58.745Z,7.23
2022-12-25T14:11:29.765Z,7.13
2022-12-25T14:14:06.400Z,7.04
2022-12-25T14:16:34.345Z,6.93
2022-12-25T14:19:03.723Z,6.84
2022-12-25T14:21:44.137Z,6.77
2022-12-25T14:24:14.783Z,6.69
2022-12-25T14:26:43.140Z,6.58
2022-12-25T14:29:17.901Z,6.45
2022-12-25T14:31:47.510Z,6.36
2022-12-25T14:34:23.051Z,6.26
2022-12-25T14:36:52.915Z,6.14
2022-12-25T14:39:29.789Z,6.00
2022-12-25T14:41:57.635Z,5.86
2022-12-25T14:44:30.155Z,5.70
2022-12-25T14:47:10.646Z,5.54
2022-12-25T14:49:38.670Z,5.34
2022-12-25T14:52:24.563Z,5.15
2022-12-25T14:55:05.281Z,4.90
2022-12-25T14:57:38.495Z,4.65
2022-12-25T15:00:24.370Z,4.48
2022-12-25T15:02:56.094Z,4.32
2022-12-25T15:05:34.752Z,4.18
2022-12-25T15:08:08.329Z,4.05
2022-12-25T15:13:25.848Z,3.77
2022-12-25T15:15:58.417Z,3.66
2022-12-25T15:18:30.961Z,3.55
2022-12-25T15:20:58.841Z,3.44
2022-12-25T15:23:26.719Z,3.33
2022-12-25T15:25:54.369Z,3.21
2022-12-25T15:28:22.081Z,3.09
2022-12-25T15:30:49.835Z,2.98
2022-12-25T15:33:19.152Z,2.88
2022-12-25T15:35:46.810Z,2.79
2022-12-25T15:38:14.442Z,2.70
2022-12-25T15:40:42.662Z,2.64
2022-12-25T15:43:38.933Z,2.58
2022-12-25T15:46:01.388Z,2.55
2022-12-25T15:48:29.188Z,2.55
2022-12-25T15:50:57.173Z,2.56
2022-12-25T15:53:24.914Z,2.56
2022-12-25T15:55:52.716Z,2.58
2022-12-25T15:58:20.292Z,2.62
2022-12-25T16:00:47.866Z,2.62
2022-12-25T16:03:15.423Z,2.65
2022-12-25T16:05:43.202Z,2.70
2022-12-25T16:08:11.070Z,2.69
2022-12-25T16:10:40.418Z,2.65
2022-12-25T16:13:08.755Z,2.64
2022-12-25T16:15:37.206Z,2.65
2022-12-25T16:18:05.595Z,2.66
2022-12-25T16:20:35.036Z,2.71
2022-12-25T16:23:02.647Z,2.78
2022-12-25T16:25:30.424Z,2.81
2022-12-25T16:27:58.217Z,2.82
2022-12-25T16:30:26.171Z,2.83
2022-12-25T16:32:54.125Z,2.84
2022-12-25T16:35:21.662Z,2.85
2022-12-25T16:37:49.220Z,2.84
2022-12-25T16:40:16.839Z,2.83
2022-12-25T16:42:44.889Z,2.80
2022-12-25T16:45:12.992Z,2.80
2022-12-25T16:47:41.225Z,2.77
2022-12-25T16:50:09.420Z,2.73
2022-12-25T16:52:37.018Z,2.73
2022-12-25T16:55:05.532Z,2.73
2022-12-25T16:57:34.088Z,2.72
2022-12-25T17:00:01.736Z,2.71
2022-12-25T17:02:29.737Z,2.72
2022-12-25T17:04:57.731Z,2.73
2022-12-25T17:07:25.551Z,2.73
2022-12-25T17:09:53.756Z,2.71
2022-12-25T17:12:21.504Z,2.72
2022-12-25T17:14:49.298Z,2.68
2022-12-25T17:17:17.262Z,2.65
2022-12-25T17:19:45.280Z,2.66
2022-12-25T17:22:13.252Z,2.66
2022-12-25T17:24:41.120Z,2.64
2022-12-25T17:27:09.444Z,2.67
2022-12-25T17:29:37.871Z,2.71
2022-12-25T17:32:06.926Z,2.75
2022-12-25T17:34:34.847Z,2.82
2022-12-25T17:37:02.831Z,2.92
2022-12-25T17:39:31.067Z,3.03
2022-12-25T17:41:58.873Z,3.15
2022-12-25T17:44:26.716Z,3.27
2022-12-25T17:46:54.516Z,3.42
2022-12-25T17:49:22.216Z,3.58
2022-12-25T17:51:50.308Z,3.71
2022-12-25T17:54:18.202Z,3.82
2022-12-25T17:56:46.162Z,3.88
2022-12-25T17:59:14.233Z,3.94
2022-12-25T18:01:42.048Z,3.99
2022-12-25T18:04:10.137Z,4.05
2022-12-25T18:06:37.830Z,4.10
2022-12-25T18:09:06.110Z,4.12
2022-12-25T18:11:36.777Z,4.16
2022-12-25T18:14:06.469Z,4.19
2022-12-25T18:16:36.929Z,4.22
2022-12-25T18:19:05.228Z,4.26
2022-12-25T18:21:32.851Z,4.30
2022-12-25T18:24:02.947Z,4.34
2022-12-25T18:26:30.707Z,4.37
2022-12-25T18:28:58.831Z,4.38
2022-12-25T18:31:31.680Z,4.41
2022-12-25T18:34:00.514Z,4.42
2022-12-25T18:36:29.928Z,4.44
2022-12-25T18:38:58.421Z,4.46
2022-12-25T18:41:26.864Z,4.47
2022-12-25T18:43:55.805Z,4.47
2022-12-25T18:46:26.468Z,4.48
2022-12-25T18:48:56.709Z,4.50
2022-12-25T18:51:24.757Z,4.52
2022-12-25T18:53:52.491Z,4.54
2022-12-25T18:56:20.532Z,4.54
2022-12-25T18:58:49.031Z,4.55
2022-12-25T19:01:19.975Z,4.57
2022-12-25T19:03:48.632Z,4.57
2022-12-25T19:06:18.474Z,4.58
2022-12-25T19:08:46.895Z,4.58
2022-12-25T19:11:14.803Z,4.58
2022-12-25T19:13:42.933Z,4.58
2022-12-25T19:16:12.159Z,4.63
2022-12-25T19:18:40.237Z,4.67
2022-12-25T19:21:10.511Z,4.70
2022-12-25T19:23:38.543Z,4.71
2022-12-25T19:26:08.327Z,4.73
2022-12-25T19:28:37.568Z,4.74
2022-12-25T19:31:07.495Z,4.74
2022-12-25T19:33:37.486Z,4.75
2022-12-25T19:36:08.772Z,4.76
2022-12-25T19:38:36.722Z,4.76
2022-12-25T19:41:10.411Z,4.73
2022-12-25T19:43:39.757Z,4.71
2022-12-25T19:46:14.755Z,4.72
2022-12-25T19:48:42.846Z,4.73
2022-12-25T19:51:18.852Z,4.72
2022-12-25T19:53:48.499Z,4.68
2022-12-25T19:56:16.419Z,4.67
2022-12-25T19:58:44.965Z,4.67
2022-12-25T20:01:15.538Z,4.69
2022-12-25T20:03:46.443Z,4.73
2022-12-25T20:06:18.645Z,4.74
2022-12-25T20:08:48.075Z,4.71
2022-12-25T20:11:17.274Z,4.69
2022-12-25T20:13:45.337Z,4.68
2022-12-25T20:16:13.453Z,4.71
2022-12-25T20:18:41.736Z,4.72
2022-12-25T20:21:23.693Z,4.72
2022-12-25T20:23:52.906Z,4.72
2022-12-25T20:26:23.759Z,4.70
2022-12-25T20:28:52.117Z,4.67
2022-12-25T20:31:26.094Z,4.64
2022-12-25T20:33:55.791Z,4.61
2022-12-25T20:36:24.231Z,4.56
2022-12-25T20:38:52.199Z,4.53
2022-12-25T20:41:26.784Z,4.50
2022-12-25T20:43:55.620Z,4.48
2022-12-25T20:46:24.499Z,4.46
2022-12-25T20:48:52.362Z,4.43
2022-12-25T20:51:25.151Z,4.41
2022-12-25T20:53:53.859Z,4.40
2022-12-25T20:56:24.430Z,4.38
2022-12-25T20:58:56.591Z,4.35
2022-12-25T21:01:24.790Z,4.31
2022-12-25T21:03:53.665Z,4.28
2022-12-25T21:06:22.314Z,4.25
2022-12-25T21:08:50.064Z,4.21
2022-12-25T21:11:18.097Z,4.20
2022-12-25T21:13:46.333Z,4.19
2022-12-25T21:16:17.812Z,4.18
2022-12-25T21:18:46.865Z,4.17
2022-12-25T21:21:15.424Z,4.17
2022-12-25T21:23:43.172Z,4.14
2022-12-25T21:26:21.816Z,4.12
2022-12-25T21:28:51.898Z,4.10
2022-12-25T21:31:20.365Z,4.09
2022-12-25T21:33:48.319Z,4.13
2022-12-25T21:36:18.010Z,4.17
2022-12-25T21:38:46.131Z,4.20
2022-12-25T21:41:14.820Z,4.23
2022-12-25T21:43:42.986Z,4.24
2022-12-25T21:46:13.556Z,4.23
2022-12-25T21:48:42.760Z,4.20
2022-12-25T21:51:19.327Z,4.16
2022-12-25T21:53:47.351Z,4.16
2022-12-25T21:56:16.627Z,4.13
2022-12-25T21:58:44.501Z,4.11
2022-12-25T22:01:12.456Z,4.09
2022-12-25T22:03:40.652Z,4.07
2022-12-25T22:06:12.768Z,4.03
2022-12-25T22:08:43.291Z,4.01
2022-12-25T22:11:11.309Z,4.01
2022-12-25T22:13:39.410Z,4.02
2022-12-25T22:16:07.633Z,4.01
2022-12-25T22:18:35.608Z,4.02
2022-12-25T22:21:03.524Z,4.02
2022-12-25T22:23:31.275Z,4.01
2022-12-25T22:25:59.136Z,4.01
2022-12-25T22:28:27.751Z,3.98
2022-12-25T22:30:55.701Z,3.97
2022-12-25T22:33:23.480Z,3.99
2022-12-25T22:36:09.939Z,4.01
2022-12-25T22:38:42.536Z,3.98
2022-12-25T22:41:10.556Z,3.97
2022-12-25T22:44:15.313Z,3.95
2022-12-25T22:46:26.448Z,3.94
2022-12-25T22:48:54.413Z,3.95
2022-12-25T22:51:22.290Z,3.91
2022-12-25T22:53:50.305Z,3.88
2022-12-25T22:56:17.891Z,3.85
2022-12-25T22:58:45.760Z,3.85
2022-12-25T23:01:13.713Z,3.86
2022-12-25T23:03:41.613Z,3.85
2022-12-25T23:06:09.543Z,3.83
2022-12-25T23:08:37.480Z,3.80
2022-12-25T23:11:05.659Z,3.74
2022-12-25T23:13:33.892Z,3.63
2022-12-25T23:16:01.962Z,3.55
2022-12-25T23:18:29.828Z,3.53
2022-12-25T23:21:01.188Z,3.55
2022-12-25T23:23:28.775Z,3.53
2022-12-25T23:25:57.248Z,3.51
2022-12-25T23:28:24.815Z,3.47
2022-12-25T23:30:52.635Z,3.44
2022-12-25T23:33:20.766Z,3.42
2022-12-25T23:35:48.630Z,3.41
2022-12-25T23:38:16.461Z,3.40
2022-12-25T23:40:44.174Z,3.38
2022-12-25T23:43:11.730Z,3.33
2022-12-25T23:45:40.377Z,3.26
2022-12-25T23:48:08.840Z,3.20
2022-12-25T23:50:36.546Z,3.17
2022-12-25T23:53:04.744Z,3.16
2022-12-25T23:55:33.607Z,3.15
2022-12-25T23:58:01.399Z,3.10
